createdAt,value
2022-08-24T00:01:33.006Z,101332.78
2022-08-24T00:04:18.457Z,101333.41
2022-08-24T00:07:04.897Z,101330.72
2022-08-24T00:09:50.883Z,101321.91
2022-08-24T00:12:36.598Z,101329.91
2022-08-24T00:15:21.837Z,101325.88
2022-08-24T00:18:07.491Z,101330.22
2022-08-24T00:20:52.739Z,101329.34
2022-08-24T00:23:37.765Z,101330.03
2022-08-24T00:26:28.977Z,101330.03
2022-08-24T00:29:16.387Z,101335.22
2022-08-24T00:32:01.784Z,101343.34
2022-08-24T00:34:58.389Z,101334.53
2022-08-24T00:37:45.581Z,101328.22
2022-08-24T00:40:35.344Z,101318.88
2022-08-24T00:43:25.695Z,101325.78
2022-08-24T00:46:22.909Z,101307.25
2022-08-24T00:49:20.213Z,101326.63
2022-08-24T00:52:12.457Z,101309.59
2022-08-24T00:55:07.573Z,101319.25
2022-08-24T00:57:57.696Z,101316.22
2022-08-24T01:00:48.603Z,101320.34
2022-08-24T01:03:35.998Z,101317.69
2022-08-24T01:06:21.254Z,101319.78
2022-08-24T01:09:07.094Z,101319.13
2022-08-24T01:11:52.549Z,101318.44
2022-08-24T01:14:38.715Z,101317.22
2022-08-24T01:17:43.562Z,101324.22
2022-08-24T01:20:28.860Z,101318.38
2022-08-24T01:23:38.226Z,101322.69
2022-08-24T01:26:30.627Z,101328.31
2022-08-24T01:29:25.382Z,101328.63
2022-08-24T01:32:11.804Z,101325.59
2022-08-24T01:34:57.589Z,101335.53
2022-08-24T01:37:42.885Z,101330.53
2022-08-24T01:40:35.752Z,101329.31
2022-08-24T01:43:21.054Z,101335.47
2022-08-24T01:46:06.465Z,101334.91
2022-08-24T01:48:51.468Z,101343.03
2022-08-24T01:51:37.462Z,101332.69
2022-08-24T01:54:23.058Z,101332.69
2022-08-24T01:57:09.191Z,101330.19
2022-08-24T01:59:54.537Z,101333.00
2022-08-24T02:02:41.345Z,101340.28
2022-08-24T02:05:26.630Z,101337.78
2022-08-24T02:08:11.990Z,101332.09
2022-08-24T02:10:57.206Z,101338.09
2022-08-24T02:13:42.675Z,101336.69
2022-08-24T02:16:27.607Z,101329.84
2022-08-24T02:19:13.598Z,101326.50
2022-08-24T02:21:59.788Z,101335.47
2022-08-24T02:24:45.045Z,101334.25
2022-08-24T02:27:30.352Z,101340.41
2022-08-24T02:30:16.170Z,101336.53
2022-08-24T02:33:01.627Z,101342.66
2022-08-24T02:35:47.384Z,101349.38
2022-08-24T02:38:32.718Z,101340.72
2022-08-24T02:41:17.950Z,101334.84
2022-08-24T02:44:03.194Z,101347.38
2022-08-24T02:46:48.695Z,101358.88
2022-08-24T02:49:35.141Z,101354.22
2022-08-24T02:52:20.946Z,101342.38
2022-08-24T03:11:08.285Z,101355.75
2022-08-24T03:13:53.073Z,101358.00
2022-08-24T03:16:38.733Z,101365.03
2022-08-24T03:19:24.197Z,101366.69
2022-08-24T03:22:09.438Z,101356.22
2022-08-24T03:24:54.654Z,101361.38
2022-08-24T03:27:40.534Z,101363.19
2022-08-24T03:30:25.830Z,101359.72
2022-08-24T03:33:12.062Z,101366.06
2022-08-24T03:35:57.541Z,101363.88
2022-08-24T03:38:43.307Z,101368.06
2022-08-24T03:41:28.594Z,101370.25
2022-08-24T03:44:13.770Z,101366.63
2022-08-24T03:46:58.937Z,101365.81
2022-08-24T03:49:44.567Z,101359.50
2022-08-24T03:52:33.453Z,101357.66
2022-08-24T03:55:20.150Z,101361.16
2022-08-24T03:58:05.392Z,101355.69
2022-08-24T04:00:50.635Z,101338.53
2022-08-24T04:03:40.841Z,101357.06
2022-08-24T04:06:26.411Z,101360.28
2022-08-24T04:09:11.745Z,101358.44
2022-08-24T04:11:56.756Z,101353.28
2022-08-24T04:14:41.803Z,101358.59
2022-08-24T04:17:27.099Z,101360.41
2022-08-24T04:20:12.589Z,101360.41
2022-08-24T04:22:57.698Z,101361.63
2022-08-24T04:35:45.399Z,101358.31
2022-08-24T04:38:30.735Z,101362.06
2022-08-24T04:41:18.371Z,101358.44
2022-08-24T04:44:37.300Z,101364.28
2022-08-24T04:47:22.576Z,101371.09
2022-08-24T04:50:08.308Z,101370.94
2022-08-24T04:52:53.228Z,101370.81
2022-08-24T04:55:49.995Z,101345.41
2022-08-24T04:58:35.002Z,101372.78
2022-08-24T05:01:23.744Z,101368.16
2022-08-24T05:04:08.958Z,101367.06
2022-08-24T05:06:54.456Z,101359.78
2022-08-24T05:09:39.525Z,101371.50
2022-08-24T05:12:24.838Z,101382.13
2022-08-24T05:15:10.204Z,101383.78
2022-08-24T05:17:55.181Z,101376.56
2022-08-24T05:20:45.337Z,101369.59
2022-08-24T05:23:31.230Z,101374.06
2022-08-24T05:26:25.373Z,101389.44
2022-08-24T05:29:10.760Z,101393.09
2022-08-24T05:31:55.722Z,101393.91
2022-08-24T05:34:40.917Z,101400.88
2022-08-24T05:37:26.294Z,101390.88
2022-08-24T05:40:14.307Z,101396.41
2022-08-24T05:42:59.645Z,101401.72
2022-08-24T05:45:44.888Z,101401.72
2022-08-24T05:48:29.950Z,101406.78
2022-08-24T05:51:15.191Z,101399.06
2022-08-24T05:54:00.741Z,101400.66
2022-08-24T05:56:46.025Z,101408.19
2022-08-24T05:59:31.760Z,101409.69
2022-08-24T06:02:17.455Z,101411.41
2022-08-24T06:05:03.052Z,101422.72
2022-08-24T06:07:48.144Z,101405.00
2022-08-24T06:10:38.781Z,101411.41
2022-08-24T06:13:23.941Z,101397.31
2022-08-24T06:16:27.657Z,101422.72
2022-08-24T06:19:15.152Z,101419.91
2022-08-24T06:22:01.386Z,101426.53
2022-08-24T06:25:05.065Z,101417.84
2022-08-24T06:27:50.253Z,101426.47
2022-08-24T06:30:35.224Z,101422.56
2022-08-24T06:33:21.171Z,101426.47
2022-08-24T06:36:06.528Z,101430.09
2022-08-24T06:38:53.015Z,101429.44
2022-08-24T06:41:39.196Z,101432.38
2022-08-24T06:44:24.211Z,101428.44
2022-08-24T06:47:09.686Z,101422.81
2022-08-24T06:49:54.761Z,101424.47
2022-08-24T06:52:40.396Z,101411.34
2022-08-24T06:55:25.553Z,101401.06
2022-08-24T06:58:10.736Z,101411.59
2022-08-24T07:00:56.961Z,101411.84
2022-08-24T07:03:42.443Z,101417.69
2022-08-24T07:06:28.628Z,101422.72
2022-08-24T07:09:13.990Z,101417.94
2022-08-24T07:11:59.321Z,101418.16
2022-08-24T07:14:44.665Z,101413.72
2022-08-24T07:17:30.009Z,101411.97
2022-08-24T07:20:17.470Z,101417.16
2022-08-24T07:23:07.411Z,101409.84
2022-08-24T07:25:55.999Z,101419.41
2022-08-24T07:28:41.993Z,101431.94
2022-08-24T07:31:27.949Z,101422.94
2022-08-24T07:34:15.240Z,101434.66
2022-08-24T07:37:03.735Z,101432.84
2022-08-24T07:39:48.863Z,101437.56
2022-08-24T07:42:34.415Z,101444.78
2022-08-24T07:45:20.575Z,101432.44
2022-08-24T07:48:05.825Z,101444.69
2022-08-24T07:50:51.360Z,101433.88
2022-08-24T07:53:53.033Z,101441.75
2022-08-24T07:56:39.394Z,101445.44
2022-08-24T07:59:24.557Z,101445.13
2022-08-24T08:02:11.660Z,101444.63
2022-08-24T08:04:56.847Z,101441.97
2022-08-24T08:07:42.400Z,101441.47
2022-08-24T08:10:30.632Z,101436.69
2022-08-24T08:13:16.082Z,101449.56
2022-08-24T08:16:05.025Z,101455.22
2022-08-24T08:18:56.417Z,101451.88
2022-08-24T08:22:11.555Z,101456.91
2022-08-24T08:24:56.633Z,101450.06
2022-08-24T08:27:41.943Z,101458.09
2022-08-24T08:30:27.017Z,101457.56
2022-08-24T08:33:13.073Z,101457.09
2022-08-24T08:36:10.622Z,101460.59
2022-08-24T08:38:56.149Z,101458.25
2022-08-24T08:41:50.103Z,101463.94
2022-08-24T08:44:45.850Z,101463.59
2022-08-24T08:47:37.539Z,101454.56
2022-08-24T08:50:33.672Z,101456.91
2022-08-24T08:53:37.642Z,101466.09
2022-08-24T08:56:38.601Z,101459.06
2022-08-24T08:59:47.738Z,101460.56
2022-08-24T09:03:03.393Z,101454.22
2022-08-24T09:05:57.903Z,101456.56
2022-08-24T09:09:04.489Z,101453.38
2022-08-24T09:11:55.545Z,101471.94
2022-08-24T09:15:02.286Z,101458.19
2022-08-24T09:18:10.336Z,101457.13
2022-08-24T09:21:32.786Z,101452.06
2022-08-24T09:24:39.198Z,101461.41
2022-08-24T09:27:33.427Z,101457.94
2022-08-24T09:30:25.876Z,101459.31
2022-08-24T09:33:22.422Z,101442.69
2022-08-24T09:36:08.413Z,101462.78
2022-08-24T09:39:01.112Z,101457.75
2022-08-24T09:41:53.449Z,101464.13
2022-08-24T09:44:56.016Z,101461.28
2022-08-24T09:47:59.534Z,101460.22
2022-08-24T09:51:20.903Z,101443.16
2022-08-24T09:54:15.425Z,101449.50
2022-08-24T09:57:50.224Z,101446.88
2022-08-24T10:01:22.717Z,101447.97
2022-08-24T10:05:12.406Z,101455.56
2022-08-24T10:08:35.084Z,101449.59
2022-08-24T10:11:39.052Z,101441.00
2022-08-24T10:14:36.303Z,101439.91
2022-08-24T10:17:44.028Z,101437.97
2022-08-24T10:20:40.226Z,101442.19
2022-08-24T10:23:58.684Z,101434.38
2022-08-24T10:27:31.761Z,101433.72
2022-08-24T10:30:53.982Z,101434.91
2022-08-24T10:33:56.494Z,101433.38
2022-08-24T10:37:00.955Z,101423.13
2022-08-24T10:40:13.695Z,101419.84
2022-08-24T10:43:35.788Z,101424.88
2022-08-24T10:46:30.219Z,101419.88
2022-08-24T10:49:36.461Z,101424.81
2022-08-24T10:52:40.232Z,101418.97
2022-08-24T10:55:28.521Z,101410.88
2022-08-24T10:58:31.604Z,101418.78
2022-08-24T11:01:26.631Z,101413.81
2022-08-24T11:04:25.423Z,101419.28
2022-08-24T11:07:22.383Z,101409.66
2022-08-24T11:10:09.992Z,101412.00
2022-08-24T11:12:55.717Z,101411.06
2022-08-24T11:15:55.136Z,101409.22
2022-08-24T11:18:55.703Z,101403.34
2022-08-24T11:21:46.223Z,101406.75
2022-08-24T11:24:40.133Z,101400.72
2022-08-24T11:27:39.450Z,101402.69
2022-08-24T11:30:28.411Z,101399.47
2022-08-24T11:33:28.039Z,101401.84
2022-08-24T11:36:28.432Z,101399.88
2022-08-24T11:39:16.856Z,101381.06
2022-08-24T11:42:16.917Z,101377.72
2022-08-24T11:45:09.841Z,101386.81
2022-08-24T11:48:16.337Z,101381.53
2022-08-24T11:51:14.700Z,101383.81
2022-08-24T11:54:11.974Z,101383.75
2022-08-24T11:57:08.461Z,101375.72
2022-08-24T11:59:56.982Z,101375.09
2022-08-24T12:02:56.460Z,101366.53
2022-08-24T12:05:52.760Z,101370.13
2022-08-24T12:08:55.209Z,101365.13
2022-08-24T12:11:52.833Z,101373.66
2022-08-24T12:14:47.381Z,101374.66
2022-08-24T12:17:51.122Z,101376.91
2022-08-24T12:20:42.131Z,101377.06
2022-08-24T12:23:31.761Z,101370.41
2022-08-24T12:26:23.121Z,101375.50
2022-08-24T12:29:22.345Z,101370.41
2022-08-24T12:32:13.846Z,101376.00
2022-08-24T12:35:05.924Z,101373.75
2022-08-24T12:38:00.046Z,101368.09
2022-08-24T12:41:17.691Z,101367.06
2022-08-24T12:44:12.149Z,101368.88
2022-08-24T12:46:57.636Z,101362.84
2022-08-24T12:49:52.873Z,101358.44
2022-08-24T12:52:52.745Z,101375.41
2022-08-24T12:55:53.392Z,101374.75
2022-08-24T12:58:54.769Z,101349.59
2022-08-24T13:02:06.980Z,101368.63
2022-08-24T13:04:52.825Z,101364.09
2022-08-24T13:07:44.252Z,101359.91
2022-08-24T13:11:06.798Z,101360.16
2022-08-24T13:13:55.044Z,101353.00
2022-08-24T13:17:00.316Z,101358.59
2022-08-24T13:20:20.667Z,101351.13
2022-08-24T13:23:12.097Z,101361.53
2022-08-24T13:26:18.913Z,101357.94
2022-08-24T13:29:05.352Z,101355.03
2022-08-24T13:31:55.737Z,101354.13
2022-08-24T13:34:47.032Z,101356.28
2022-08-24T13:37:32.413Z,101350.91
2022-08-24T13:40:27.786Z,101354.09
2022-08-24T13:43:32.694Z,101351.66
2022-08-24T13:46:29.908Z,101341.50
2022-08-24T13:49:15.162Z,101344.03
2022-08-24T13:52:19.804Z,101337.97
2022-08-24T13:55:23.565Z,101345.84
2022-08-24T13:58:33.223Z,101338.56
2022-08-24T14:01:34.463Z,101340.50
2022-08-24T14:04:25.695Z,101332.84
2022-08-24T14:07:49.715Z,101333.41
2022-08-24T14:11:25.584Z,101338.72
2022-08-24T14:14:15.397Z,101318.91
2022-08-24T14:17:45.332Z,101327.50
2022-08-24T14:20:40.624Z,101338.84
2022-08-24T14:24:00.714Z,101329.88
2022-08-24T14:26:47.792Z,101332.81
2022-08-24T14:29:39.294Z,101342.28
2022-08-24T14:32:24.472Z,101330.84
2022-08-24T14:35:22.828Z,101330.72
2022-08-24T14:38:20.432Z,101331.63
2022-08-24T14:41:20.353Z,101334.22
2022-08-24T14:44:10.213Z,101333.78
2022-08-24T14:47:14.242Z,101338.28
2022-08-24T14:50:12.690Z,101323.53
2022-08-24T14:53:15.821Z,101334.31
2022-08-24T14:56:31.686Z,101332.75
2022-08-24T14:59:40.425Z,101319.69
2022-08-24T15:02:56.198Z,101320.75
2022-08-24T15:06:25.274Z,101321.63
2022-08-24T15:09:10.990Z,101320.00
2022-08-24T15:12:13.501Z,101316.16
2022-08-24T15:15:09.766Z,101322.41
2022-08-24T15:18:01.471Z,101317.13
2022-08-24T15:20:57.692Z,101317.81
2022-08-24T15:23:52.003Z,101315.56
2022-08-24T15:26:55.805Z,101314.34
2022-08-24T15:29:52.954Z,101304.84
2022-08-24T15:32:51.808Z,101318.53
2022-08-24T15:35:38.907Z,101321.97
2022-08-24T15:38:33.957Z,101324.56
2022-08-24T15:41:21.946Z,101319.28
2022-08-24T15:44:23.481Z,101314.16
2022-08-24T15:47:19.297Z,101314.34
2022-08-24T15:50:09.117Z,101311.00
2022-08-24T15:53:01.398Z,101313.91
2022-08-24T15:55:48.149Z,101316.88
2022-08-24T15:58:38.944Z,101309.84
2022-08-24T16:01:46.811Z,101307.84
2022-08-24T16:04:40.284Z,101300.63
2022-08-24T16:07:31.304Z,101322.00
2022-08-24T16:10:33.236Z,101313.72
2022-08-24T16:13:18.136Z,101316.03
2022-08-24T16:16:10.812Z,101311.25
2022-08-24T16:18:59.209Z,101322.00
2022-08-24T16:21:55.320Z,101317.25
2022-08-24T16:24:43.913Z,101314.38
2022-08-24T16:27:53.751Z,101312.91
2022-08-24T16:30:59.926Z,101319.97
2022-08-24T16:33:47.258Z,101310.44
2022-08-24T16:36:32.281Z,101311.03
2022-08-24T16:39:17.655Z,101301.50
2022-08-24T16:42:06.882Z,101299.84
2022-08-24T16:44:52.185Z,101310.63
2022-08-24T16:47:37.574Z,101305.41
2022-08-24T16:50:27.509Z,101313.69
2022-08-24T16:53:13.172Z,101307.88
2022-08-24T16:55:58.999Z,101307.44
2022-08-24T16:58:47.231Z,101304.53
2022-08-24T17:01:32.546Z,101304.53
2022-08-24T17:04:17.810Z,101300.81
2022-08-24T17:07:05.613Z,101299.13
2022-08-24T17:09:51.182Z,101302.47
2022-08-24T17:12:37.521Z,101292.47
2022-08-24T17:15:22.758Z,101291.66
2022-08-24T17:18:11.246Z,101296.63
2022-08-24T17:20:56.798Z,101311.91
2022-08-24T17:23:42.522Z,101294.28
2022-08-24T17:26:30.253Z,101300.28
2022-08-24T17:29:18.584Z,101306.28
2022-08-24T17:32:05.212Z,101299.66
2022-08-24T17:34:50.272Z,101298.16
2022-08-24T17:37:36.957Z,101296.03
2022-08-24T17:40:25.043Z,101307.03
2022-08-24T17:43:10.561Z,101307.97
2022-08-24T17:45:56.457Z,101298.19
2022-08-24T17:48:46.144Z,101303.97
2022-08-24T17:51:31.610Z,101307.91
2022-08-24T17:54:18.041Z,101305.78
2022-08-24T17:57:03.761Z,101315.28
2022-08-24T17:59:50.681Z,101312.78
2022-08-24T18:02:36.069Z,101315.84
2022-08-24T18:05:21.802Z,101307.59
2022-08-24T18:08:07.331Z,101315.84
2022-08-24T18:10:53.268Z,101315.19
2022-08-24T18:13:38.465Z,101310.84
2022-08-24T18:16:27.381Z,101321.34
2022-08-24T18:19:13.655Z,101322.50
2022-08-24T18:21:58.874Z,101311.25
2022-08-24T18:24:44.694Z,101323.28
2022-08-24T18:27:32.603Z,101330.31
2022-08-24T18:30:25.209Z,101320.16
2022-08-24T18:33:14.646Z,101331.53
2022-08-24T18:36:00.113Z,101325.28
2022-08-24T18:38:45.186Z,101340.94
2022-08-24T18:41:37.620Z,101334.09
2022-08-24T18:44:26.143Z,101333.50
2022-08-24T18:47:13.338Z,101331.56
2022-08-24T18:49:58.993Z,101339.81
2022-08-24T18:52:44.642Z,101335.41
2022-08-24T18:55:30.487Z,101346.97
2022-08-24T18:58:15.545Z,101346.69
2022-08-24T19:01:02.480Z,101352.84
2022-08-24T19:03:48.216Z,101349.25
2022-08-24T19:06:33.124Z,101345.84
2022-08-24T19:09:19.165Z,101356.31
2022-08-24T19:12:05.165Z,101354.59
2022-08-24T19:14:56.262Z,101362.56
2022-08-24T19:17:41.870Z,101368.06
2022-08-24T19:20:27.053Z,101355.31
2022-08-24T19:23:20.360Z,101365.38
2022-08-24T19:26:05.574Z,101365.28
2022-08-24T19:28:51.589Z,101364.16
2022-08-24T19:31:36.789Z,101366.31
2022-08-24T19:34:22.257Z,101374.69
2022-08-24T19:37:08.021Z,101377.66
2022-08-24T19:39:53.392Z,101380.22
2022-08-24T19:42:38.670Z,101371.91
2022-08-24T19:45:45.012Z,101376.44
2022-08-24T19:48:35.136Z,101389.56
2022-08-24T19:51:20.270Z,101384.56
2022-08-24T19:54:06.622Z,101388.28
2022-08-24T19:56:53.212Z,101373.47
2022-08-24T19:59:42.998Z,101391.75
2022-08-24T20:02:28.070Z,101391.16
2022-08-24T20:05:13.722Z,101378.56
2022-08-24T20:08:00.210Z,101382.44
2022-08-24T20:10:45.234Z,101384.97
2022-08-24T20:13:30.495Z,101387.34
2022-08-24T20:16:18.216Z,101392.59
2022-08-24T20:19:05.045Z,101388.09
2022-08-24T20:21:49.954Z,101386.44
2022-08-24T20:24:35.134Z,101392.00
2022-08-24T20:27:25.018Z,101396.56
2022-08-24T20:30:10.740Z,101395.94
2022-08-24T20:32:55.843Z,101388.97
2022-08-24T20:35:41.734Z,101399.19
2022-08-24T20:38:31.666Z,101400.72
2022-08-24T20:41:17.463Z,101392.72
2022-08-24T20:44:04.102Z,101397.91
2022-08-24T20:46:50.128Z,101403.41
2022-08-24T20:49:36.631Z,101402.09
2022-08-24T20:52:21.985Z,101395.06
2022-08-24T20:55:07.317Z,101392.06
2022-08-24T20:57:56.150Z,101398.09
2022-08-24T21:00:44.288Z,101398.28
2022-08-24T21:03:29.982Z,101401.97
2022-08-24T21:06:18.837Z,101402.81
2022-08-24T21:09:06.006Z,101411.47
2022-08-24T21:11:51.356Z,101412.00
2022-08-24T21:14:36.421Z,101418.00
2022-08-24T21:17:23.704Z,101409.84
2022-08-24T21:20:10.585Z,101409.50
2022-08-24T21:22:55.593Z,101411.84
2022-08-24T21:25:41.034Z,101417.03
2022-08-24T21:28:26.419Z,101416.84
2022-08-24T21:31:11.777Z,101424.81
2022-08-24T21:34:15.486Z,101425.63
2022-08-24T21:37:01.174Z,101408.44
2022-08-24T21:39:47.351Z,101417.28
2022-08-24T21:42:34.490Z,101421.09
2022-08-24T21:45:22.664Z,101414.94
2022-08-24T21:48:08.072Z,101420.13
2022-08-24T21:50:53.941Z,101424.78
2022-08-24T21:53:38.973Z,101425.13
2022-08-24T21:56:26.854Z,101419.63
2022-08-24T21:59:12.330Z,101426.16
2022-08-24T22:01:57.534Z,101426.28
2022-08-24T22:04:42.701Z,101417.13
2022-08-24T22:07:28.055Z,101417.78
2022-08-24T22:10:13.574Z,101419.44
2022-08-24T22:13:03.802Z,101416.91
2022-08-24T22:15:50.174Z,101416.56
2022-08-24T22:18:36.081Z,101410.91
2022-08-24T22:21:24.785Z,101409.06
2022-08-24T22:24:09.734Z,101410.56
2022-08-24T22:26:55.110Z,101419.38
2022-08-24T22:29:39.997Z,101419.69
2022-08-24T22:32:25.718Z,101421.31
2022-08-24T22:35:11.038Z,101404.72
2022-08-24T22:37:56.020Z,101404.72
2022-08-24T22:40:43.077Z,101410.63
2022-08-24T22:43:48.048Z,101416.03
2022-08-24T22:46:37.086Z,101414.53
2022-08-24T22:49:25.000Z,101406.81
2022-08-24T22:52:11.077Z,101405.47
2022-08-24T22:54:57.326Z,101392.13
2022-08-24T22:57:42.911Z,101401.94
2022-08-24T23:00:29.771Z,101402.91
2022-08-24T23:03:14.947Z,101401.75
2022-08-24T23:06:00.077Z,101397.41
2022-08-24T23:08:45.758Z,101405.56
2022-08-24T23:11:33.082Z,101392.66
2022-08-24T23:14:19.412Z,101402.03
2022-08-24T23:17:05.197Z,101383.63
2022-08-24T23:20:05.860Z,101390.66
2022-08-24T23:22:50.932Z,101392.41
2022-08-24T23:25:36.085Z,101387.88
2022-08-24T23:28:21.330Z,101392.28
2022-08-24T23:31:08.784Z,101376.84
2022-08-24T23:33:54.188Z,101380.56
2022-08-24T23:36:40.066Z,101376.97
2022-08-24T23:39:25.261Z,101367.09
2022-08-24T23:42:10.632Z,101374.06
2022-08-24T23:44:55.863Z,101374.56
2022-08-24T23:47:42.224Z,101379.34
2022-08-24T23:50:27.701Z,101367.09
2022-08-24T23:53:13.685Z,101370.38
2022-08-24T23:56:07.169Z,101366.06
2022-08-24T23:58:53.038Z,101368.72
